Izmir, Turkey

3:34 PM EEST on October 21, 2014 (GMT +0300)
Adnan Menderes | Change Station
CLOSE
Current Station
Airport
Location: Izmir,
Elevation: 394 ft
Nearby Weather Stations

Elev 394 ft 38.29 °N, 27.15 °E | Updated 14 minutes ago

Clear
Clear
79 °F
Feels Like 79 °F
N
7
Wind Variable Wind from SSW

Today
High -- | Low -- °F
--% Chance of Precip.
Yesterday
High -- | Low -- °F
Precip. -- in
7:25 AM 6:25 PM
Waning Crescent, 6% visible
Pressure 29.89 in
Visibility -9999.0 miles
Clouds
Dew Point 25 °F
Humidity 14%
Rainfall 0.00 in
Snow Depth Not available.
UV Not available.
Pollen Not available.
Air Quality Not available.
Flu Activity Not available.
METAR LTBJ 211220Z 20006KT 150V240 CAVOK 26/M04 Q1012 NOSIG RMK RWY16 19007KT 160V230

More Conditions Fewer Conditions

Pressure 29.89 in
Visibility -9999.0 miles
Clouds
Dew Point 25 °F
Humidity 14%
Rainfall 0.00 in
Snow Depth Not available.
UV Not available.
Pollen Not available.
Air Quality Not available.
Flu Activity Not available.
METAR LTBJ 211220Z 20006KT 150V240 CAVOK 26/M04 Q1012 NOSIG RMK RWY16 19007KT 160V230

More Conditions Fewer Conditions

10-Day Weather Forecast

Almanac

Astronomy

Oct. 21, 2014 Rise Set
Actual Time 7:25 AM EEST 6:25 PM EEST
Civil Twilight 6:59 AM EEST 6:52 PM EEST
Nautical Twilight 6:28 AM EEST 7:23 PM EEST
Astronomical Twilight 5:57 AM EEST 7:53 PM EEST
Moon 4:53 AM EEST 5:07 PM EEST
Length of Visible Light 11h 53m
Length of Day
10h 59m
Tomorrow will be 2m 19s shorter.
Waning Crescent, 6% of the Moon is Illuminated
Today
Waning Crescent
Oct 23
New
Oct 30
First Quarter
Nov 6
Full
Nov 14
Last Quarter

Yesterday's Extremes

Country Highs Country Lows

Community

WunderPhotos

Upload Photos

1,763,647 photos uploaded!

Nearby

Snow Depth

Not available.

Earthquake Activity

City Distance Mag. Time & Date
No recent earthquake activity has been reported nearby.
Minimum magnitude displayed is 2.5.

Coastal Water Temperatures

Place Temperature
No Stations Reporting

Nearby Weather Stations